createdAt,value
2022-08-23T00:02:43.464Z,2.42
2022-08-23T00:08:48.658Z,2.47
2022-08-23T00:14:53.980Z,2.60
2022-08-23T00:20:56.098Z,2.40
2022-08-23T00:27:16.769Z,2.42
2022-08-23T00:33:18.537Z,2.42
2022-08-23T00:39:21.167Z,2.45
2022-08-23T00:45:46.357Z,2.58
2022-08-23T00:52:17.427Z,2.60
2022-08-23T00:58:21.363Z,2.70
2022-08-23T01:04:24.681Z,2.10
2022-08-23T01:10:30.949Z,2.72
2022-08-23T01:16:43.369Z,2.17
2022-08-23T01:23:02.749Z,2.60
2022-08-23T01:29:06.771Z,2.90
2022-08-23T01:35:09.158Z,2.70
2022-08-23T01:41:11.065Z,3.10
2022-08-23T01:47:12.964Z,2.67
2022-08-23T01:53:16.135Z,2.47
2022-08-23T01:59:22.723Z,3.17
2022-08-23T02:05:30.703Z,3.13
2022-08-23T02:11:41.374Z,3.38
2022-08-23T02:17:44.489Z,3.00
2022-08-23T02:23:47.568Z,3.30
2022-08-23T02:29:51.650Z,3.25
2022-08-23T02:35:55.247Z,3.50
2022-08-23T02:42:00.528Z,3.58
2022-08-23T02:54:16.554Z,3.63
2022-08-23T03:00:19.373Z,3.50
2022-08-23T03:06:25.415Z,3.45
2022-08-23T03:12:28.367Z,4.13
2022-08-23T03:18:31.907Z,3.92
2022-08-23T03:24:36.494Z,3.70
2022-08-23T03:30:38.669Z,4.25
2022-08-23T03:36:42.045Z,4.13
2022-08-23T03:42:44.421Z,4.10
2022-08-23T03:48:53.214Z,3.97
2022-08-23T03:54:55.578Z,5.85
2022-08-23T04:00:57.806Z,4.60
2022-08-23T04:07:01.055Z,3.95
2022-08-23T04:13:03.134Z,4.05
2022-08-23T04:19:06.835Z,3.75
2022-08-23T04:25:29.927Z,4.20
2022-08-23T04:31:34.752Z,4.13
2022-08-23T04:37:37.883Z,3.83
2022-08-23T04:43:40.948Z,3.40
2022-08-23T04:49:44.036Z,3.97
2022-08-23T04:55:46.261Z,3.42
2022-08-23T05:01:49.953Z,3.35
2022-08-23T05:07:51.742Z,3.55
2022-08-23T05:13:53.891Z,3.13
2022-08-23T05:19:55.794Z,2.80
2022-08-23T05:25:58.414Z,2.40
2022-08-23T05:32:04.645Z,2.17
2022-08-23T05:38:06.671Z,2.25
2022-08-23T05:44:10.479Z,1.90
2022-08-23T05:56:27.086Z,2.30
2022-08-23T06:02:28.932Z,2.22
2022-08-23T06:08:31.165Z,2.30
2022-08-23T06:14:33.847Z,2.50
2022-08-23T06:20:37.422Z,2.35
2022-08-23T06:26:43.021Z,2.08
2022-08-23T06:32:44.913Z,2.45
2022-08-23T06:39:06.748Z,2.60
2022-08-23T06:45:26.982Z,2.05
2022-08-23T06:51:43.210Z,2.05
2022-08-23T06:58:01.408Z,1.80
2022-08-23T07:04:30.280Z,2.00
2022-08-23T07:10:43.831Z,1.98
2022-08-23T07:16:54.563Z,2.10
2022-08-23T07:22:56.378Z,1.50
2022-08-23T07:28:58.611Z,1.88
2022-08-23T07:35:00.896Z,1.83
2022-08-23T07:41:06.236Z,1.70
2022-08-23T07:47:09.076Z,1.67
2022-08-23T07:53:11.262Z,1.45
2022-08-23T07:59:14.201Z,1.67
2022-08-23T08:05:27.184Z,1.63
2022-08-23T08:11:35.224Z,1.60
2022-08-23T08:17:38.519Z,1.90
2022-08-23T08:30:09.223Z,1.50
2022-08-23T08:36:35.127Z,1.75
2022-08-23T08:42:43.895Z,1.42
2022-08-23T08:48:55.188Z,1.13
2022-08-23T08:55:13.235Z,1.67
2022-08-23T09:01:21.656Z,1.20
2022-08-23T09:07:38.739Z,1.20
2022-08-23T09:13:57.140Z,1.30
2022-08-23T09:20:02.450Z,1.40
2022-08-23T09:26:19.056Z,1.20
2022-08-23T09:32:36.311Z,1.10
2022-08-23T09:38:56.726Z,1.08
2022-08-23T09:45:01.220Z,1.13
2022-08-23T09:51:06.943Z,1.00
2022-08-23T09:57:11.135Z,0.93
2022-08-23T10:03:23.625Z,0.80
2022-08-23T10:09:33.747Z,0.63
2022-08-23T10:15:55.111Z,0.80
2022-08-23T10:22:17.986Z,0.80
2022-08-23T10:29:15.907Z,0.90
2022-08-23T10:35:27.285Z,0.80
2022-08-23T10:41:38.555Z,0.90
2022-08-23T10:48:01.744Z,0.93
2022-08-23T10:54:13.423Z,0.80
2022-08-23T11:00:21.409Z,0.95
2022-08-23T11:06:40.044Z,0.80
2022-08-23T11:12:55.918Z,1.15
2022-08-23T11:18:58.090Z,1.00
2022-08-23T11:25:16.159Z,1.00
2022-08-23T11:31:34.780Z,0.82
2022-08-23T11:38:04.178Z,0.80
2022-08-23T11:44:13.397Z,0.93
2022-08-23T11:50:50.137Z,0.93
2022-08-23T11:57:15.692Z,0.93
2022-08-23T12:03:35.001Z,1.02
2022-08-23T12:09:37.027Z,0.90
2022-08-23T12:16:16.278Z,0.88
2022-08-23T12:22:23.703Z,1.00
2022-08-23T12:28:41.211Z,1.10
2022-08-23T12:35:03.292Z,0.98
2022-08-23T12:41:29.562Z,1.00
2022-08-23T12:47:32.280Z,1.10
2022-08-23T12:53:44.529Z,1.00
2022-08-23T12:59:53.163Z,1.10
2022-08-23T13:06:02.360Z,0.95
2022-08-23T13:12:06.995Z,1.10
2022-08-23T13:18:08.880Z,1.00
2022-08-23T13:24:38.305Z,0.90
2022-08-23T13:31:02.109Z,1.00
2022-08-23T13:37:17.786Z,0.90
2022-08-23T13:43:24.189Z,1.17
2022-08-23T13:49:29.244Z,1.07
2022-08-23T13:55:31.450Z,1.30
2022-08-23T14:01:34.383Z,1.08
2022-08-23T14:07:36.299Z,1.00
2022-08-23T14:13:38.485Z,0.90
2022-08-23T14:26:03.348Z,1.25
2022-08-23T14:32:05.613Z,1.15
2022-08-23T14:38:07.419Z,1.10
2022-08-23T14:44:09.209Z,1.50
2022-08-23T14:50:13.218Z,1.40
2022-08-23T14:56:21.553Z,1.40
2022-08-23T15:02:26.314Z,1.25
2022-08-23T15:08:28.128Z,0.93
2022-08-23T15:14:29.917Z,1.52
2022-08-23T15:20:35.715Z,1.40
2022-08-23T15:26:37.818Z,1.58
2022-08-23T15:32:39.723Z,1.15
2022-08-23T15:38:54.523Z,1.38
2022-08-23T15:44:56.351Z,1.30
2022-08-23T15:50:59.066Z,1.30
2022-08-23T15:57:00.840Z,1.02
2022-08-23T16:03:19.477Z,1.10
2022-08-23T16:09:24.593Z,1.40
2022-08-23T16:15:26.671Z,1.13
2022-08-23T16:21:30.599Z,1.45
2022-08-23T16:27:32.452Z,1.48
2022-08-23T16:33:34.215Z,1.00
2022-08-23T16:39:37.080Z,1.20
2022-08-23T16:45:38.883Z,1.13
2022-08-23T16:51:41.306Z,1.20
2022-08-23T16:57:44.802Z,1.25
2022-08-23T17:03:46.720Z,1.27
2022-08-23T17:09:48.633Z,1.30
2022-08-23T17:15:50.503Z,1.17
2022-08-23T17:21:52.260Z,1.48
2022-08-23T17:27:56.109Z,1.20
2022-08-23T17:34:03.079Z,1.25
2022-08-23T17:40:10.902Z,1.30
2022-08-23T17:46:14.935Z,1.10
2022-08-23T17:52:17.571Z,1.10
2022-08-23T17:58:19.913Z,1.42
2022-08-23T18:04:21.778Z,1.35
2022-08-23T18:10:25.383Z,1.33
2022-08-23T18:16:34.446Z,1.35
2022-08-23T18:22:37.558Z,1.70
2022-08-23T18:28:39.361Z,1.40
2022-08-23T18:34:41.288Z,1.60
2022-08-23T18:40:45.644Z,1.23
2022-08-23T18:46:47.642Z,1.52
2022-08-23T18:52:49.426Z,1.20
2022-08-23T18:58:51.778Z,1.55
2022-08-23T19:04:53.523Z,1.52
2022-08-23T19:10:55.274Z,1.30
2022-08-23T19:16:57.070Z,1.40
2022-08-23T19:22:59.270Z,1.52
2022-08-23T19:29:05.629Z,1.45
2022-08-23T19:35:08.703Z,1.40
2022-08-23T19:41:10.437Z,1.45
2022-08-23T19:47:13.413Z,1.27
2022-08-23T19:53:21.763Z,1.73
2022-08-23T19:59:33.018Z,1.45
2022-08-23T20:05:34.873Z,1.23
2022-08-23T20:11:37.184Z,1.40
2022-08-23T20:17:39.884Z,1.30
2022-08-23T20:24:00.375Z,1.50
2022-08-23T20:30:03.817Z,1.40
2022-08-23T20:36:05.599Z,1.45
2022-08-23T20:42:08.064Z,1.25
2022-08-23T20:48:11.168Z,1.40
2022-08-23T20:54:13.120Z,1.38
2022-08-23T21:00:15.427Z,1.30
2022-08-23T21:06:22.015Z,1.67
2022-08-23T21:12:23.854Z,1.90
2022-08-23T21:18:25.835Z,1.83
2022-08-23T21:24:27.710Z,1.77
2022-08-23T21:30:30.076Z,1.50
2022-08-23T21:36:32.070Z,2.22
2022-08-23T21:42:34.004Z,1.80
2022-08-23T21:48:35.852Z,1.80
2022-08-23T21:54:42.834Z,1.70
2022-08-23T22:06:47.749Z,1.92
2022-08-23T22:12:50.243Z,1.88
2022-08-23T22:18:52.030Z,1.83
2022-08-23T22:24:54.187Z,1.88
2022-08-23T22:31:04.455Z,2.00
2022-08-23T22:37:07.359Z,2.00
2022-08-23T22:43:09.124Z,1.90
2022-08-23T22:49:10.919Z,2.20
2022-08-23T22:55:13.210Z,2.05
2022-08-23T23:01:44.300Z,1.65
2022-08-23T23:08:04.665Z,1.92
2022-08-23T23:14:07.341Z,2.22
2022-08-23T23:20:28.457Z,2.10
2022-08-23T23:26:30.277Z,2.55
2022-08-23T23:32:32.103Z,2.40
2022-08-23T23:38:34.148Z,2.40
2022-08-23T23:44:35.930Z,2.60
2022-08-23T23:50:45.329Z,2.65
2022-08-23T23:56:48.813Z,2.80
